Terminal Aerodrome Forecast
Issued by NWS Sterling, VA

Current Version | Previous Version | Text Only | Print | Product List | Glossary On
Versions: 1 2 3 4 5 6 7 8 9 10 11 12 13 14 15 16
131
FTUS41 KLWX 261130
TAFMRB
TAF
KMRB 261130Z 2612/2712 VRB04KT 6SM -DZ BR BKN015 OVC040
     FM261500 16009KT P6SM BKN015 OVC040
     FM261800 16010G18KT P6SM SCT025 BKN030 OVC040
     FM270100 17009KT 5SM -SHRA BKN015 OVC040
     FM270400 33005KT P6SM BKN130
     FM270800 VRB04KT P6SM SCT130=

USA.gov is the U.S. government's official web portal to all federal, state and local government web resources and services.